sensor_id;sensor_type;location;lat;lon;timestamp;P1;durP1;ratioP1;P2;durP2;ratioP2
8482;SDS011;4278;42.668;23.312;2023-04-25T00:00:15;5.03;;;3.37;;
8482;SDS011;4278;42.668;23.312;2023-04-25T00:02:43;5.70;;;3.37;;
8482;SDS011;4278;42.668;23.312;2023-04-25T00:05:11;4.60;;;3.67;;
8482;SDS011;4278;42.668;23.312;2023-04-25T00:07:40;6.90;;;4.33;;
8482;SDS011;4278;42.668;23.312;2023-04-25T00:10:08;5.10;;;3.93;;
8482;SDS011;4278;42.668;23.312;2023-04-25T00:12:36;7.07;;;3.80;;
8482;SDS011;4278;42.668;23.312;2023-04-25T00:15:04;6.63;;;4.03;;
8482;SDS011;4278;42.668;23.312;2023-04-25T00:17:31;5.73;;;4.10;;
8482;SDS011;4278;42.668;23.312;2023-04-25T00:20:01;4.93;;;4.13;;
8482;SDS011;4278;42.668;23.312;2023-04-25T00:22:31;5.57;;;4.30;;
8482;SDS011;4278;42.668;23.312;2023-04-25T00:24:58;5.83;;;4.37;;
8482;SDS011;4278;42.668;23.312;2023-04-25T00:27:25;4.73;;;3.87;;
8482;SDS011;4278;42.668;23.312;2023-04-25T00:29:52;5.40;;;3.83;;
8482;SDS011;4278;42.668;23.312;2023-04-25T00:32:19;7.33;;;4.00;;
8482;SDS011;4278;42.668;23.312;2023-04-25T00:34:46;5.73;;;4.50;;
8482;SDS011;4278;42.668;23.312;2023-04-25T00:37:14;6.07;;;4.10;;
8482;SDS011;4278;42.668;23.312;2023-04-25T00:39:41;5.60;;;4.10;;
8482;SDS011;4278;42.668;23.312;2023-04-25T00:42:07;6.77;;;4.70;;
8482;SDS011;4278;42.668;23.312;2023-04-25T00:44:34;7.03;;;5.00;;
8482;SDS011;4278;42.668;23.312;2023-04-25T00:47:02;6.27;;;5.20;;
8482;SDS011;4278;42.668;23.312;2023-04-25T00:49:29;6.07;;;4.50;;
8482;SDS011;4278;42.668;23.312;2023-04-25T00:51:56;7.50;;;5.23;;
8482;SDS011;4278;42.668;23.312;2023-04-25T00:54:24;8.40;;;5.30;;
8482;SDS011;4278;42.668;23.312;2023-04-25T00:56:51;7.50;;;4.93;;
8482;SDS011;4278;42.668;23.312;2023-04-25T00:59:19;7.00;;;5.37;;
8482;SDS011;4278;42.668;23.312;2023-04-25T01:01:46;6.93;;;5.63;;
8482;SDS011;4278;42.668;23.312;2023-04-25T01:04:13;6.33;;;5.40;;
8482;SDS011;4278;42.668;23.312;2023-04-25T01:06:40;8.50;;;5.40;;
8482;SDS011;4278;42.668;23.312;2023-04-25T01:09:07;9.37;;;5.07;;
8482;SDS011;4278;42.668;23.312;2023-04-25T01:14:05;7.43;;;5.90;;
8482;SDS011;4278;42.668;23.312;2023-04-25T01:16:32;8.53;;;6.03;;
8482;SDS011;4278;42.668;23.312;2023-04-25T01:18:59;8.43;;;5.90;;
8482;SDS011;4278;42.668;23.312;2023-04-25T01:21:27;9.33;;;6.33;;
8482;SDS011;4278;42.668;23.312;2023-04-25T01:23:55;7.27;;;5.77;;
8482;SDS011;4278;42.668;23.312;2023-04-25T01:26:23;8.77;;;6.80;;
8482;SDS011;4278;42.668;23.312;2023-04-25T01:28:51;8.27;;;6.00;;
8482;SDS011;4278;42.668;23.312;2023-04-25T01:31:18;9.87;;;5.53;;
8482;SDS011;4278;42.668;23.312;2023-04-25T01:33:45;8.33;;;5.40;;
8482;SDS011;4278;42.668;23.312;2023-04-25T01:36:12;7.13;;;5.10;;
8482;SDS011;4278;42.668;23.312;2023-04-25T01:38:41;9.00;;;5.70;;
8482;SDS011;4278;42.668;23.312;2023-04-25T01:41:09;10.03;;;6.27;;
8482;SDS011;4278;42.668;23.312;2023-04-25T01:43:36;8.03;;;5.77;;
8482;SDS011;4278;42.668;23.312;2023-04-25T01:46:03;10.20;;;6.07;;
8482;SDS011;4278;42.668;23.312;2023-04-25T01:48:30;9.40;;;6.63;;
8482;SDS011;4278;42.668;23.312;2023-04-25T01:50:57;8.00;;;5.27;;
8482;SDS011;4278;42.668;23.312;2023-04-25T01:53:24;9.70;;;6.70;;
8482;SDS011;4278;42.668;23.312;2023-04-25T01:55:52;8.47;;;6.00;;
8482;SDS011;4278;42.668;23.312;2023-04-25T01:58:19;8.13;;;5.60;;
8482;SDS011;4278;42.668;23.312;2023-04-25T02:00:46;7.47;;;5.37;;
8482;SDS011;4278;42.668;23.312;2023-04-25T02:03:13;7.00;;;5.20;;
8482;SDS011;4278;42.668;23.312;2023-04-25T02:05:40;7.60;;;5.70;;
8482;SDS011;4278;42.668;23.312;2023-04-25T02:08:08;10.43;;;7.30;;
8482;SDS011;4278;42.668;23.312;2023-04-25T02:10:35;9.97;;;6.67;;
8482;SDS011;4278;42.668;23.312;2023-04-25T02:13:03;6.37;;;5.23;;
8482;SDS011;4278;42.668;23.312;2023-04-25T02:15:30;8.60;;;6.07;;
8482;SDS011;4278;42.668;23.312;2023-04-25T02:17:57;8.57;;;5.87;;
8482;SDS011;4278;42.668;23.312;2023-04-25T02:20:25;7.60;;;5.53;;
8482;SDS011;4278;42.668;23.312;2023-04-25T02:22:52;6.17;;;5.27;;
8482;SDS011;4278;42.668;23.312;2023-04-25T02:25:19;7.57;;;5.47;;
8482;SDS011;4278;42.668;23.312;2023-04-25T02:27:46;7.93;;;6.37;;
8482;SDS011;4278;42.668;23.312;2023-04-25T02:30:15;8.20;;;6.33;;
8482;SDS011;4278;42.668;23.312;2023-04-25T02:32:41;7.00;;;5.70;;
8482;SDS011;4278;42.668;23.312;2023-04-25T02:35:09;8.73;;;5.60;;
8482;SDS011;4278;42.668;23.312;2023-04-25T02:37:36;6.63;;;5.17;;
8482;SDS011;4278;42.668;23.312;2023-04-25T02:40:05;7.80;;;5.27;;
8482;SDS011;4278;42.668;23.312;2023-04-25T02:42:33;8.70;;;5.53;;
8482;SDS011;4278;42.668;23.312;2023-04-25T02:45:00;6.30;;;5.00;;
8482;SDS011;4278;42.668;23.312;2023-04-25T02:47:28;6.27;;;5.10;;
8482;SDS011;4278;42.668;23.312;2023-04-25T02:49:55;8.57;;;6.40;;
8482;SDS011;4278;42.668;23.312;2023-04-25T02:52:22;9.63;;;6.90;;
8482;SDS011;4278;42.668;23.312;2023-04-25T02:54:49;12.23;;;9.13;;
8482;SDS011;4278;42.668;23.312;2023-04-25T02:57:16;12.33;;;8.40;;
8482;SDS011;4278;42.668;23.312;2023-04-25T02:59:43;9.10;;;6.93;;
8482;SDS011;4278;42.668;23.312;2023-04-25T03:02:10;6.57;;;5.00;;
8482;SDS011;4278;42.668;23.312;2023-04-25T03:04:38;8.63;;;6.30;;
8482;SDS011;4278;42.668;23.312;2023-04-25T03:07:05;9.67;;;6.30;;
8482;SDS011;4278;42.668;23.312;2023-04-25T03:09:32;9.93;;;6.67;;
8482;SDS011;4278;42.668;23.312;2023-04-25T03:11:59;9.93;;;6.20;;
8482;SDS011;4278;42.668;23.312;2023-04-25T03:14:26;10.03;;;6.63;;
8482;SDS011;4278;42.668;23.312;2023-04-25T03:16:53;9.40;;;6.70;;
8482;SDS011;4278;42.668;23.312;2023-04-25T03:19:20;9.87;;;6.83;;
8482;SDS011;4278;42.668;23.312;2023-04-25T03:21:48;10.17;;;7.20;;
8482;SDS011;4278;42.668;23.312;2023-04-25T03:24:15;8.93;;;5.73;;
8482;SDS011;4278;42.668;23.312;2023-04-25T03:26:42;10.10;;;6.30;;
8482;SDS011;4278;42.668;23.312;2023-04-25T03:29:08;7.97;;;5.17;;
8482;SDS011;4278;42.668;23.312;2023-04-25T03:31:35;9.63;;;6.10;;
8482;SDS011;4278;42.668;23.312;2023-04-25T03:34:02;8.77;;;6.00;;
8482;SDS011;4278;42.668;23.312;2023-04-25T03:36:29;9.23;;;6.17;;
8482;SDS011;4278;42.668;23.312;2023-04-25T03:38:57;7.23;;;6.03;;
8482;SDS011;4278;42.668;23.312;2023-04-25T03:41:24;12.87;;;7.27;;
8482;SDS011;4278;42.668;23.312;2023-04-25T03:43:51;10.10;;;6.40;;
8482;SDS011;4278;42.668;23.312;2023-04-25T03:46:17;9.77;;;7.00;;
8482;SDS011;4278;42.668;23.312;2023-04-25T03:48:44;9.73;;;7.13;;
8482;SDS011;4278;42.668;23.312;2023-04-25T03:51:11;8.30;;;6.47;;
8482;SDS011;4278;42.668;23.312;2023-04-25T03:53:38;8.60;;;6.13;;
8482;SDS011;4278;42.668;23.312;2023-04-25T03:56:06;9.37;;;6.80;;
8482;SDS011;4278;42.668;23.312;2023-04-25T03:58:34;8.20;;;5.73;;
8482;SDS011;4278;42.668;23.312;2023-04-25T04:01:01;11.30;;;5.60;;
8482;SDS011;4278;42.668;23.312;2023-04-25T04:03:32;9.10;;;6.30;;
8482;SDS011;4278;42.668;23.312;2023-04-25T04:05:59;8.20;;;5.90;;
8482;SDS011;4278;42.668;23.312;2023-04-25T04:08:26;9.33;;;6.47;;
8482;SDS011;4278;42.668;23.312;2023-04-25T04:10:52;7.63;;;6.17;;
8482;SDS011;4278;42.668;23.312;2023-04-25T04:13:20;8.60;;;6.30;;
8482;SDS011;4278;42.668;23.312;2023-04-25T04:15:47;10.10;;;6.20;;
8482;SDS011;4278;42.668;23.312;2023-04-25T04:18:14;7.90;;;6.33;;
8482;SDS011;4278;42.668;23.312;2023-04-25T04:20:41;11.30;;;6.90;;
8482;SDS011;4278;42.668;23.312;2023-04-25T04:23:09;9.67;;;6.43;;
8482;SDS011;4278;42.668;23.312;2023-04-25T04:25:36;7.90;;;5.60;;
8482;SDS011;4278;42.668;23.312;2023-04-25T04:28:04;8.17;;;5.93;;
8482;SDS011;4278;42.668;23.312;2023-04-25T04:30:33;9.03;;;6.00;;
8482;SDS011;4278;42.668;23.312;2023-04-25T04:33:01;7.67;;;6.37;;
8482;SDS011;4278;42.668;23.312;2023-04-25T04:35:28;8.13;;;6.13;;
8482;SDS011;4278;42.668;23.312;2023-04-25T04:37:55;9.07;;;6.70;;
8482;SDS011;4278;42.668;23.312;2023-04-25T04:40:22;10.13;;;6.70;;
8482;SDS011;4278;42.668;23.312;2023-04-25T04:42:50;11.13;;;6.17;;
8482;SDS011;4278;42.668;23.312;2023-04-25T04:45:18;7.50;;;5.97;;
8482;SDS011;4278;42.668;23.312;2023-04-25T04:47:47;8.30;;;6.17;;
8482;SDS011;4278;42.668;23.312;2023-04-25T04:50:14;11.63;;;6.80;;
8482;SDS011;4278;42.668;23.312;2023-04-25T04:52:41;11.93;;;5.90;;
8482;SDS011;4278;42.668;23.312;2023-04-25T04:55:08;8.30;;;5.47;;
8482;SDS011;4278;42.668;23.312;2023-04-25T04:57:36;12.37;;;7.13;;
8482;SDS011;4278;42.668;23.312;2023-04-25T05:00:04;8.23;;;6.53;;
8482;SDS011;4278;42.668;23.312;2023-04-25T05:02:35;8.97;;;6.67;;
8482;SDS011;4278;42.668;23.312;2023-04-25T05:05:04;8.73;;;6.27;;
8482;SDS011;4278;42.668;23.312;2023-04-25T05:07:32;8.80;;;6.37;;
8482;SDS011;4278;42.668;23.312;2023-04-25T05:09:58;8.13;;;6.27;;
8482;SDS011;4278;42.668;23.312;2023-04-25T05:12:25;8.47;;;6.60;;
8482;SDS011;4278;42.668;23.312;2023-04-25T05:14:52;8.07;;;6.03;;
8482;SDS011;4278;42.668;23.312;2023-04-25T05:17:19;9.13;;;6.33;;
8482;SDS011;4278;42.668;23.312;2023-04-25T05:19:48;6.63;;;5.17;;
8482;SDS011;4278;42.668;23.312;2023-04-25T05:22:16;10.23;;;7.00;;
8482;SDS011;4278;42.668;23.312;2023-04-25T05:24:45;12.17;;;6.87;;
8482;SDS011;4278;42.668;23.312;2023-04-25T05:27:13;8.77;;;6.90;;
8482;SDS011;4278;42.668;23.312;2023-04-25T05:29:40;8.80;;;7.07;;
8482;SDS011;4278;42.668;23.312;2023-04-25T05:32:07;9.77;;;7.13;;
8482;SDS011;4278;42.668;23.312;2023-04-25T05:34:34;9.33;;;7.60;;
8482;SDS011;4278;42.668;23.312;2023-04-25T05:37:04;10.33;;;7.53;;
8482;SDS011;4278;42.668;23.312;2023-04-25T05:39:32;10.93;;;7.83;;
8482;SDS011;4278;42.668;23.312;2023-04-25T05:41:59;12.00;;;8.07;;
8482;SDS011;4278;42.668;23.312;2023-04-25T05:44:27;8.73;;;6.87;;
8482;SDS011;4278;42.668;23.312;2023-04-25T05:46:54;9.77;;;7.80;;
8482;SDS011;4278;42.668;23.312;2023-04-25T05:49:21;12.03;;;7.73;;
8482;SDS011;4278;42.668;23.312;2023-04-25T05:51:47;11.17;;;8.20;;
8482;SDS011;4278;42.668;23.312;2023-04-25T05:54:14;15.20;;;8.37;;
8482;SDS011;4278;42.668;23.312;2023-04-25T05:56:42;14.90;;;10.27;;
8482;SDS011;4278;42.668;23.312;2023-04-25T05:59:09;10.80;;;7.57;;
8482;SDS011;4278;42.668;23.312;2023-04-25T06:01:36;11.40;;;7.70;;
8482;SDS011;4278;42.668;23.312;2023-04-25T06:04:03;10.93;;;7.70;;
8482;SDS011;4278;42.668;23.312;2023-04-25T06:06:30;12.73;;;7.93;;
8482;SDS011;4278;42.668;23.312;2023-04-25T06:08:57;11.63;;;6.97;;
8482;SDS011;4278;42.668;23.312;2023-04-25T06:11:23;14.23;;;8.20;;
8482;SDS011;4278;42.668;23.312;2023-04-25T06:13:52;10.80;;;7.60;;
8482;SDS011;4278;42.668;23.312;2023-04-25T06:16:19;11.73;;;7.77;;
8482;SDS011;4278;42.668;23.312;2023-04-25T06:18:45;13.83;;;8.80;;
8482;SDS011;4278;42.668;23.312;2023-04-25T06:21:13;13.47;;;7.80;;
8482;SDS011;4278;42.668;23.312;2023-04-25T06:23:39;13.13;;;7.53;;
8482;SDS011;4278;42.668;23.312;2023-04-25T06:26:06;12.30;;;8.83;;
8482;SDS011;4278;42.668;23.312;2023-04-25T06:28:33;10.60;;;7.77;;
8482;SDS011;4278;42.668;23.312;2023-04-25T06:31:01;15.33;;;8.07;;
8482;SDS011;4278;42.668;23.312;2023-04-25T06:33:28;11.93;;;7.23;;
8482;SDS011;4278;42.668;23.312;2023-04-25T06:35:55;9.17;;;6.90;;
8482;SDS011;4278;42.668;23.312;2023-04-25T06:38:22;14.73;;;7.57;;
8482;SDS011;4278;42.668;23.312;2023-04-25T06:40:48;8.77;;;6.23;;
8482;SDS011;4278;42.668;23.312;2023-04-25T06:43:16;24.50;;;14.43;;
8482;SDS011;4278;42.668;23.312;2023-04-25T06:45:45;7.40;;;5.20;;
8482;SDS011;4278;42.668;23.312;2023-04-25T06:48:15;8.80;;;6.30;;
8482;SDS011;4278;42.668;23.312;2023-04-25T06:50:42;7.23;;;5.50;;
8482;SDS011;4278;42.668;23.312;2023-04-25T06:53:09;18.20;;;6.90;;
8482;SDS011;4278;42.668;23.312;2023-04-25T06:55:36;15.43;;;6.13;;
8482;SDS011;4278;42.668;23.312;2023-04-25T06:58:04;9.50;;;6.23;;
8482;SDS011;4278;42.668;23.312;2023-04-25T07:00:32;27.83;;;6.10;;
8482;SDS011;4278;42.668;23.312;2023-04-25T07:02:59;6.23;;;5.03;;
8482;SDS011;4278;42.668;23.312;2023-04-25T07:05:27;7.40;;;5.90;;
8482;SDS011;4278;42.668;23.312;2023-04-25T07:07:53;19.80;;;8.77;;
8482;SDS011;4278;42.668;23.312;2023-04-25T07:10:29;18.67;;;9.27;;
8482;SDS011;4278;42.668;23.312;2023-04-25T07:12:57;9.17;;;6.00;;
8482;SDS011;4278;42.668;23.312;2023-04-25T07:15:26;20.33;;;8.73;;
8482;SDS011;4278;42.668;23.312;2023-04-25T07:17:54;12.50;;;6.73;;
8482;SDS011;4278;42.668;23.312;2023-04-25T07:20:22;24.63;;;6.70;;
8482;SDS011;4278;42.668;23.312;2023-04-25T07:22:51;9.93;;;6.47;;
8482;SDS011;4278;42.668;23.312;2023-04-25T07:25:24;12.13;;;5.83;;
8482;SDS011;4278;42.668;23.312;2023-04-25T07:27:51;9.30;;;6.50;;
8482;SDS011;4278;42.668;23.312;2023-04-25T07:30:18;9.30;;;5.70;;
8482;SDS011;4278;42.668;23.312;2023-04-25T07:32:45;14.23;;;6.33;;
8482;SDS011;4278;42.668;23.312;2023-04-25T07:35:12;17.50;;;10.43;;
8482;SDS011;4278;42.668;23.312;2023-04-25T07:37:39;8.50;;;5.97;;
8482;SDS011;4278;42.668;23.312;2023-04-25T07:40:08;51.70;;;31.33;;
8482;SDS011;4278;42.668;23.312;2023-04-25T07:42:35;13.33;;;7.20;;
8482;SDS011;4278;42.668;23.312;2023-04-25T07:45:02;19.70;;;10.73;;
8482;SDS011;4278;42.668;23.312;2023-04-25T07:47:29;9.53;;;6.07;;
8482;SDS011;4278;42.668;23.312;2023-04-25T07:49:56;13.10;;;6.93;;
8482;SDS011;4278;42.668;23.312;2023-04-25T07:52:23;7.77;;;5.33;;
8482;SDS011;4278;42.668;23.312;2023-04-25T07:54:49;9.07;;;5.70;;
8482;SDS011;4278;42.668;23.312;2023-04-25T07:57:18;16.57;;;6.80;;
8482;SDS011;4278;42.668;23.312;2023-04-25T07:59:45;35.20;;;13.87;;
8482;SDS011;4278;42.668;23.312;2023-04-25T08:02:12;10.80;;;6.80;;
8482;SDS011;4278;42.668;23.312;2023-04-25T08:04:39;10.10;;;6.37;;
8482;SDS011;4278;42.668;23.312;2023-04-25T08:07:06;13.13;;;6.10;;
8482;SDS011;4278;42.668;23.312;2023-04-25T08:09:33;11.60;;;6.37;;
8482;SDS011;4278;42.668;23.312;2023-04-25T08:12:01;8.00;;;5.60;;
8482;SDS011;4278;42.668;23.312;2023-04-25T08:14:29;13.70;;;5.93;;
8482;SDS011;4278;42.668;23.312;2023-04-25T08:17:00;12.00;;;7.27;;
8482;SDS011;4278;42.668;23.312;2023-04-25T08:19:28;10.30;;;5.27;;
8482;SDS011;4278;42.668;23.312;2023-04-25T08:21:55;5.13;;;4.23;;
8482;SDS011;4278;42.668;23.312;2023-04-25T08:24:22;7.80;;;4.93;;
8482;SDS011;4278;42.668;23.312;2023-04-25T08:26:48;6.17;;;4.90;;
8482;SDS011;4278;42.668;23.312;2023-04-25T08:29:15;9.90;;;6.23;;
8482;SDS011;4278;42.668;23.312;2023-04-25T08:31:43;12.53;;;8.20;;
8482;SDS011;4278;42.668;23.312;2023-04-25T08:34:10;7.73;;;4.20;;
8482;SDS011;4278;42.668;23.312;2023-04-25T08:36:37;6.63;;;4.00;;
8482;SDS011;4278;42.668;23.312;2023-04-25T08:39:04;7.17;;;4.07;;
8482;SDS011;4278;42.668;23.312;2023-04-25T08:41:32;8.07;;;4.63;;
8482;SDS011;4278;42.668;23.312;2023-04-25T08:44:00;19.13;;;12.03;;
8482;SDS011;4278;42.668;23.312;2023-04-25T08:46:29;16.10;;;8.00;;
8482;SDS011;4278;42.668;23.312;2023-04-25T08:49:00;7.30;;;4.77;;
8482;SDS011;4278;42.668;23.312;2023-04-25T08:51:29;10.00;;;5.50;;
8482;SDS011;4278;42.668;23.312;2023-04-25T08:54:00;9.33;;;4.53;;
8482;SDS011;4278;42.668;23.312;2023-04-25T08:56:34;9.27;;;4.40;;
8482;SDS011;4278;42.668;23.312;2023-04-25T08:59:01;6.40;;;4.78;;
8482;SDS011;4278;42.668;23.312;2023-04-25T09:01:28;7.75;;;5.10;;
8482;SDS011;4278;42.668;23.312;2023-04-25T09:03:56;5.07;;;4.50;;
8482;SDS011;4278;42.668;23.312;2023-04-25T09:06:25;6.38;;;4.75;;
8482;SDS011;4278;42.668;23.312;2023-04-25T09:08:52;5.00;;;3.88;;
8482;SDS011;4278;42.668;23.312;2023-04-25T09:11:19;6.80;;;4.85;;
8482;SDS011;4278;42.668;23.312;2023-04-25T09:13:46;6.72;;;4.45;;
8482;SDS011;4278;42.668;23.312;2023-04-25T09:16:13;5.05;;;3.67;;
8482;SDS011;4278;42.668;23.312;2023-04-25T09:18:42;10.35;;;5.40;;
8482;SDS011;4278;42.668;23.312;2023-04-25T09:21:11;19.38;;;8.38;;
8482;SDS011;4278;42.668;23.312;2023-04-25T09:23:38;9.50;;;6.40;;
8482;SDS011;4278;42.668;23.312;2023-04-25T09:26:07;8.88;;;3.35;;
8482;SDS011;4278;42.668;23.312;2023-04-25T09:28:34;5.18;;;3.13;;
8482;SDS011;4278;42.668;23.312;2023-04-25T09:31:02;8.90;;;3.95;;
8482;SDS011;4278;42.668;23.312;2023-04-25T09:33:30;4.25;;;3.17;;
8482;SDS011;4278;42.668;23.312;2023-04-25T09:36:01;8.68;;;4.50;;
8482;SDS011;4278;42.668;23.312;2023-04-25T09:38:31;6.90;;;3.80;;
8482;SDS011;4278;42.668;23.312;2023-04-25T09:41:06;4.57;;;3.92;;
8482;SDS011;4278;42.668;23.312;2023-04-25T09:43:33;8.07;;;4.38;;
8482;SDS011;4278;42.668;23.312;2023-04-25T09:46:00;5.85;;;4.07;;
8482;SDS011;4278;42.668;23.312;2023-04-25T09:48:27;15.68;;;5.22;;
8482;SDS011;4278;42.668;23.312;2023-04-25T09:51:05;3.80;;;3.03;;
8482;SDS011;4278;42.668;23.312;2023-04-25T09:53:34;5.10;;;2.70;;
8482;SDS011;4278;42.668;23.312;2023-04-25T09:56:07;5.93;;;4.47;;
8482;SDS011;4278;42.668;23.312;2023-04-25T09:58:35;5.50;;;3.85;;
8482;SDS011;4278;42.668;23.312;2023-04-25T10:01:04;4.43;;;3.13;;
8482;SDS011;4278;42.668;23.312;2023-04-25T10:03:34;3.30;;;3.00;;
8482;SDS011;4278;42.668;23.312;2023-04-25T10:06:06;5.05;;;3.80;;
8482;SDS011;4278;42.668;23.312;2023-04-25T10:08:37;4.25;;;3.47;;
8482;SDS011;4278;42.668;23.312;2023-04-25T10:11:04;4.97;;;3.67;;
8482;SDS011;4278;42.668;23.312;2023-04-25T10:13:33;5.35;;;3.60;;
8482;SDS011;4278;42.668;23.312;2023-04-25T10:16:01;5.77;;;4.33;;
8482;SDS011;4278;42.668;23.312;2023-04-25T10:18:29;3.20;;;2.10;;
8482;SDS011;4278;42.668;23.312;2023-04-25T10:20:58;1.20;;;0.93;;
8482;SDS011;4278;42.668;23.312;2023-04-25T10:23:26;1.30;;;1.17;;
8482;SDS011;4278;42.668;23.312;2023-04-25T10:25:56;1.73;;;1.20;;
8482;SDS011;4278;42.668;23.312;2023-04-25T10:28:23;1.77;;;1.45;;
8482;SDS011;4278;42.668;23.312;2023-04-25T10:30:57;2.85;;;1.48;;
8482;SDS011;4278;42.668;23.312;2023-04-25T10:33:34;1.85;;;1.20;;
8482;SDS011;4278;42.668;23.312;2023-04-25T10:36:08;1.95;;;1.42;;
8482;SDS011;4278;42.668;23.312;2023-04-25T10:38:36;4.32;;;2.67;;
8482;SDS011;4278;42.668;23.312;2023-04-25T10:41:05;1.45;;;1.20;;
8482;SDS011;4278;42.668;23.312;2023-04-25T10:43:37;3.33;;;1.27;;
8482;SDS011;4278;42.668;23.312;2023-04-25T10:46:18;2.65;;;1.20;;
8482;SDS011;4278;42.668;23.312;2023-04-25T10:48:48;1.58;;;1.35;;
8482;SDS011;4278;42.668;23.312;2023-04-25T10:51:17;2.53;;;1.30;;
8482;SDS011;4278;42.668;23.312;2023-04-25T10:53:46;2.20;;;1.50;;
8482;SDS011;4278;42.668;23.312;2023-04-25T10:56:18;1.42;;;1.20;;
8482;SDS011;4278;42.668;23.312;2023-04-25T10:58:46;1.60;;;1.50;;
8482;SDS011;4278;42.668;23.312;2023-04-25T11:01:14;4.63;;;1.60;;
8482;SDS011;4278;42.668;23.312;2023-04-25T11:03:42;1.88;;;1.63;;
8482;SDS011;4278;42.668;23.312;2023-04-25T11:06:15;2.83;;;1.33;;
8482;SDS011;4278;42.668;23.312;2023-04-25T11:08:49;1.00;;;0.90;;
8482;SDS011;4278;42.668;23.312;2023-04-25T11:11:18;3.33;;;1.10;;
8482;SDS011;4278;42.668;23.312;2023-04-25T11:13:47;3.05;;;2.70;;
8482;SDS011;4278;42.668;23.312;2023-04-25T11:16:15;3.92;;;3.10;;
8482;SDS011;4278;42.668;23.312;2023-04-25T11:18:42;2.05;;;1.48;;
8482;SDS011;4278;42.668;23.312;2023-04-25T11:21:10;5.68;;;3.83;;
8482;SDS011;4278;42.668;23.312;2023-04-25T11:23:37;6.95;;;5.00;;
8482;SDS011;4278;42.668;23.312;2023-04-25T11:26:04;3.05;;;1.50;;
8482;SDS011;4278;42.668;23.312;2023-04-25T11:28:32;1.25;;;1.15;;
8482;SDS011;4278;42.668;23.312;2023-04-25T11:30:59;1.88;;;1.27;;
8482;SDS011;4278;42.668;23.312;2023-04-25T11:33:26;16.25;;;2.95;;
8482;SDS011;4278;42.668;23.312;2023-04-25T11:35:53;6.35;;;1.85;;
8482;SDS011;4278;42.668;23.312;2023-04-25T11:38:22;2.53;;;1.60;;
8482;SDS011;4278;42.668;23.312;2023-04-25T11:40:49;5.70;;;2.03;;
8482;SDS011;4278;42.668;23.312;2023-04-25T11:43:17;6.85;;;1.77;;
8482;SDS011;4278;42.668;23.312;2023-04-25T11:45:48;4.00;;;2.13;;
8482;SDS011;4278;42.668;23.312;2023-04-25T11:48:15;3.27;;;1.70;;
8482;SDS011;4278;42.668;23.312;2023-04-25T11:50:42;10.33;;;5.57;;
8482;SDS011;4278;42.668;23.312;2023-04-25T11:53:09;2.50;;;1.47;;
8482;SDS011;4278;42.668;23.312;2023-04-25T11:55:36;3.63;;;1.93;;
8482;SDS011;4278;42.668;23.312;2023-04-25T11:58:04;1.07;;;1.07;;
8482;SDS011;4278;42.668;23.312;2023-04-25T12:00:31;2.53;;;1.10;;
8482;SDS011;4278;42.668;23.312;2023-04-25T12:03:00;1.23;;;1.10;;
8482;SDS011;4278;42.668;23.312;2023-04-25T12:05:29;3.30;;;1.20;;
8482;SDS011;4278;42.668;23.312;2023-04-25T12:07:58;1.20;;;1.10;;
8482;SDS011;4278;42.668;23.312;2023-04-25T12:10:37;3.30;;;2.23;;
8482;SDS011;4278;42.668;23.312;2023-04-25T12:13:17;2.20;;;1.80;;
8482;SDS011;4278;42.668;23.312;2023-04-25T12:15:47;1.40;;;1.30;;
8482;SDS011;4278;42.668;23.312;2023-04-25T12:18:18;2.33;;;1.40;;
8482;SDS011;4278;42.668;23.312;2023-04-25T12:20:46;2.47;;;1.77;;
8482;SDS011;4278;42.668;23.312;2023-04-25T12:23:13;0.87;;;0.87;;
8482;SDS011;4278;42.668;23.312;2023-04-25T12:25:40;2.73;;;1.20;;
8482;SDS011;4278;42.668;23.312;2023-04-25T12:28:11;4.50;;;1.58;;
8482;SDS011;4278;42.668;23.312;2023-04-25T12:33:30;3.40;;;1.20;;
8482;SDS011;4278;42.668;23.312;2023-04-25T12:36:15;1.30;;;1.10;;
8482;SDS011;4278;42.668;23.312;2023-04-25T12:38:42;1.03;;;1.00;;
8482;SDS011;4278;42.668;23.312;2023-04-25T12:41:09;1.10;;;1.00;;
8482;SDS011;4278;42.668;23.312;2023-04-25T12:43:36;2.60;;;0.90;;
8482;SDS011;4278;42.668;23.312;2023-04-25T12:46:03;3.47;;;1.33;;
8482;SDS011;4278;42.668;23.312;2023-04-25T12:48:31;1.40;;;1.10;;
8482;SDS011;4278;42.668;23.312;2023-04-25T12:50:58;2.10;;;1.20;;
8482;SDS011;4278;42.668;23.312;2023-04-25T12:53:32;1.87;;;1.30;;
8482;SDS011;4278;42.668;23.312;2023-04-25T12:56:02;3.63;;;1.30;;
8482;SDS011;4278;42.668;23.312;2023-04-25T12:58:29;2.17;;;1.10;;
8482;SDS011;4278;42.668;23.312;2023-04-25T13:00:56;2.47;;;1.60;;
8482;SDS011;4278;42.668;23.312;2023-04-25T13:03:23;1.80;;;1.30;;
8482;SDS011;4278;42.668;23.312;2023-04-25T13:05:51;3.37;;;1.20;;
8482;SDS011;4278;42.668;23.312;2023-04-25T13:08:19;3.47;;;1.30;;
8482;SDS011;4278;42.668;23.312;2023-04-25T13:10:47;2.17;;;1.40;;
8482;SDS011;4278;42.668;23.312;2023-04-25T13:13:13;2.30;;;1.60;;
8482;SDS011;4278;42.668;23.312;2023-04-25T13:15:41;2.03;;;1.70;;
8482;SDS011;4278;42.668;23.312;2023-04-25T13:18:08;3.20;;;1.90;;
8482;SDS011;4278;42.668;23.312;2023-04-25T13:20:35;1.67;;;1.40;;
8482;SDS011;4278;42.668;23.312;2023-04-25T13:23:03;8.40;;;1.63;;
8482;SDS011;4278;42.668;23.312;2023-04-25T13:25:30;4.20;;;1.90;;
8482;SDS011;4278;42.668;23.312;2023-04-25T13:27:56;3.57;;;2.30;;
8482;SDS011;4278;42.668;23.312;2023-04-25T13:30:23;3.87;;;2.97;;
8482;SDS011;4278;42.668;23.312;2023-04-25T13:32:50;5.07;;;2.57;;
8482;SDS011;4278;42.668;23.312;2023-04-25T13:35:17;3.30;;;1.90;;
8482;SDS011;4278;42.668;23.312;2023-04-25T13:37:45;2.37;;;1.80;;
8482;SDS011;4278;42.668;23.312;2023-04-25T13:40:13;4.57;;;2.47;;
8482;SDS011;4278;42.668;23.312;2023-04-25T13:42:39;3.37;;;2.43;;
8482;SDS011;4278;42.668;23.312;2023-04-25T13:45:07;4.00;;;2.00;;
8482;SDS011;4278;42.668;23.312;2023-04-25T13:47:35;4.07;;;1.70;;
8482;SDS011;4278;42.668;23.312;2023-04-25T13:50:02;2.87;;;1.90;;
8482;SDS011;4278;42.668;23.312;2023-04-25T13:52:30;2.10;;;1.90;;
8482;SDS011;4278;42.668;23.312;2023-04-25T13:54:57;2.50;;;1.50;;
8482;SDS011;4278;42.668;23.312;2023-04-25T13:57:25;2.67;;;1.40;;
8482;SDS011;4278;42.668;23.312;2023-04-25T13:59:52;2.13;;;1.30;;
8482;SDS011;4278;42.668;23.312;2023-04-25T14:02:19;4.53;;;1.50;;
8482;SDS011;4278;42.668;23.312;2023-04-25T14:04:45;5.13;;;1.60;;
8482;SDS011;4278;42.668;23.312;2023-04-25T14:07:13;2.43;;;1.50;;
8482;SDS011;4278;42.668;23.312;2023-04-25T14:09:41;2.00;;;1.10;;
8482;SDS011;4278;42.668;23.312;2023-04-25T14:12:07;1.37;;;1.23;;
8482;SDS011;4278;42.668;23.312;2023-04-25T14:14:36;2.27;;;1.10;;
8482;SDS011;4278;42.668;23.312;2023-04-25T14:17:03;1.57;;;1.30;;
8482;SDS011;4278;42.668;23.312;2023-04-25T14:19:30;1.20;;;1.10;;
8482;SDS011;4278;42.668;23.312;2023-04-25T14:21:56;2.67;;;1.10;;
8482;SDS011;4278;42.668;23.312;2023-04-25T14:24:23;3.20;;;1.50;;
8482;SDS011;4278;42.668;23.312;2023-04-25T14:26:50;1.23;;;1.13;;
8482;SDS011;4278;42.668;23.312;2023-04-25T14:29:17;3.00;;;1.13;;
8482;SDS011;4278;42.668;23.312;2023-04-25T14:31:45;1.50;;;1.40;;
8482;SDS011;4278;42.668;23.312;2023-04-25T14:34:12;1.40;;;1.30;;
8482;SDS011;4278;42.668;23.312;2023-04-25T14:36:39;2.97;;;1.47;;
8482;SDS011;4278;42.668;23.312;2023-04-25T14:39:06;1.20;;;1.10;;
8482;SDS011;4278;42.668;23.312;2023-04-25T14:41:33;1.70;;;1.60;;
8482;SDS011;4278;42.668;23.312;2023-04-25T14:44:00;1.50;;;1.40;;
8482;SDS011;4278;42.668;23.312;2023-04-25T14:46:30;2.40;;;1.50;;
8482;SDS011;4278;42.668;23.312;2023-04-25T14:48:58;2.33;;;1.80;;
8482;SDS011;4278;42.668;23.312;2023-04-25T14:51:28;2.33;;;1.60;;
8482;SDS011;4278;42.668;23.312;2023-04-25T14:53:56;2.83;;;1.80;;
8482;SDS011;4278;42.668;23.312;2023-04-25T14:56:23;2.40;;;1.80;;
8482;SDS011;4278;42.668;23.312;2023-04-25T14:58:49;2.63;;;1.97;;
8482;SDS011;4278;42.668;23.312;2023-04-25T15:01:16;4.17;;;2.10;;
8482;SDS011;4278;42.668;23.312;2023-04-25T15:03:45;3.47;;;2.33;;
8482;SDS011;4278;42.668;23.312;2023-04-25T15:06:13;4.27;;;2.40;;